Time;durP1;ratioP1;P1;durP2;ratioP2;P2;SDS_P1;SDS_P2;PMS_P1;PMS_P2;Temp;Humidity;BMP_temperature;BMP_pressure;BME280_temperature;BME280_humidity;BME280_pressure;Samples;Min_cycle;Max_cycle;Signal;HPM_P1;HPM_P2
2021/03/03 00:01:46;;;;;;;4.57;3.07;;;22.50;30.00;;;;;;4972954;28;20472;-60
2021/03/03 00:04:11;;;;;;;3.63;2.90;;;22.60;30.00;;;;;;4973122;28;20420;-60
2021/03/03 00:06:37;;;;;;;3.63;3.10;;;22.60;30.00;;;;;;4972920;28;20427;-60
2021/03/03 00:09:03;;;;;;;4.03;3.10;;;22.50;30.00;;;;;;4973096;28;20752;-60
2021/03/03 00:11:29;;;;;;;3.50;2.83;;;22.50;30.00;;;;;;4972591;28;20396;-61
2021/03/03 00:13:54;;;;;;;3.37;3.00;;;22.50;29.90;;;;;;4972759;28;20416;-60
2021/03/03 00:16:20;;;;;;;3.60;2.85;;;22.50;29.90;;;;;;4973008;28;20450;-61
2021/03/03 00:18:46;;;;;;;3.60;3.10;;;22.50;29.90;;;;;;4972617;28;20871;-61
2021/03/03 00:21:11;;;;;;;3.60;3.10;;;22.50;29.90;;;;;;4972985;28;20396;-60
2021/03/03 00:23:37;;;;;;;3.90;3.20;;;22.50;29.90;;;;;;4972365;28;20423;-60
2021/03/03 00:26:03;;;;;;;3.90;2.88;;;22.50;29.90;;;;;;4972791;28;20447;-60
2021/03/03 00:28:28;;;;;;;3.73;3.00;;;22.50;29.80;;;;;;4972843;28;20476;-60
2021/03/03 00:30:54;;;;;;;3.60;2.80;;;22.50;29.90;;;;;;4972876;28;20931;-60
2021/03/03 00:33:19;;;;;;;3.40;2.87;;;22.40;29.80;;;;;;4972283;28;20407;-60
2021/03/03 00:35:45;;;;;;;3.80;3.10;;;22.40;29.80;;;;;;4972294;28;20753;-60
2021/03/03 00:38:11;;;;;;;3.63;3.20;;;22.40;29.70;;;;;;4980912;28;20491;-60
2021/03/03 00:40:36;;;;;;;3.95;2.97;;;22.40;29.70;;;;;;4992146;28;20394;-60
2021/03/03 00:43:02;;;;;;;3.80;3.20;;;22.50;29.80;;;;;;4992097;28;20422;-60
2021/03/03 00:45:28;;;;;;;4.20;2.90;;;22.40;29.70;;;;;;4991626;28;20395;-61
2021/03/03 00:47:54;;;;;;;3.80;2.90;;;22.40;29.70;;;;;;4992017;28;20474;-60
2021/03/03 00:50:19;;;;;;;3.80;3.00;;;22.40;29.70;;;;;;4991992;28;20394;-60
2021/03/03 00:52:45;;;;;;;3.65;2.97;;;22.40;29.70;;;;;;4992108;28;20480;-60
2021/03/03 00:55:12;;;;;;;3.90;3.10;;;22.40;29.70;;;;;;4992081;28;20445;-60
2021/03/03 00:57:39;;;;;;;3.40;2.90;;;22.40;29.70;;;;;;4991441;28;20479;-60
2021/03/03 01:00:06;;;;;;;3.20;2.65;;;22.30;29.70;;;;;;4992034;28;20905;-60
2021/03/03 01:02:32;;;;;;;3.25;2.90;;;22.30;29.60;;;;;;4991596;28;20418;-60
2021/03/03 01:04:57;;;;;;;3.73;3.00;;;22.30;29.60;;;;;;4991956;28;20391;-61
2021/03/03 01:07:23;;;;;;;3.40;2.90;;;22.30;29.50;;;;;;4991659;28;20375;-61
2021/03/03 01:09:49;;;;;;;3.60;3.00;;;22.30;29.60;;;;;;4991680;28;20402;-61
2021/03/03 01:12:14;;;;;;;3.42;2.90;;;22.30;29.50;;;;;;4991710;28;20426;-61
2021/03/03 01:14:40;;;;;;;3.60;2.80;;;22.30;29.50;;;;;;4991785;28;20391;-60
2021/03/03 01:17:06;;;;;;;3.57;2.73;;;22.30;29.90;;;;;;4991872;28;20398;-60
2021/03/03 01:19:31;;;;;;;3.28;2.83;;;22.30;29.50;;;;;;4992974;28;20762;-61
2021/03/03 01:21:57;;;;;;;3.40;2.60;;;22.30;29.50;;;;;;4995255;28;20394;-61
2021/03/03 01:24:23;;;;;;;3.38;2.60;;;22.30;29.50;;;;;;4995689;28;20409;-60
2021/03/03 01:26:48;;;;;;;3.17;2.77;;;22.30;29.40;;;;;;4995594;28;20386;-60
2021/03/03 01:29:14;;;;;;;3.50;2.90;;;22.20;29.40;;;;;;4995624;28;20394;-60
2021/03/03 01:31:40;;;;;;;3.10;2.80;;;22.30;29.50;;;;;;4995022;28;20386;-61
2021/03/03 01:34:05;;;;;;;3.60;2.72;;;22.20;29.40;;;;;;4995550;28;20399;-61
2021/03/03 01:36:31;;;;;;;3.30;2.83;;;22.20;29.40;;;;;;4995339;28;20390;-61
2021/03/03 01:38:56;;;;;;;3.47;2.70;;;22.20;29.40;;;;;;4995467;28;20405;-61
2021/03/03 01:41:22;;;;;;;3.67;3.00;;;22.20;29.40;;;;;;4995388;28;20387;-61
2021/03/03 01:43:48;;;;;;;3.17;2.85;;;22.20;29.40;;;;;;4995052;28;20910;-60
2021/03/03 01:46:14;;;;;;;3.30;2.80;;;22.20;29.40;;;;;;4995231;28;20402;-60
2021/03/03 01:48:40;;;;;;;3.60;2.90;;;22.20;29.40;;;;;;4995321;28;20735;-60
2021/03/03 01:51:06;;;;;;;3.50;2.70;;;22.20;29.40;;;;;;4995246;28;20389;-60
2021/03/03 01:53:32;;;;;;;3.10;2.80;;;22.20;29.40;;;;;;4993491;28;20455;-61
2021/03/03 01:55:58;;;;;;;3.00;2.60;;;22.20;29.40;;;;;;4995126;28;20432;-60
2021/03/03 01:58:24;;;;;;;3.28;2.90;;;22.20;29.40;;;;;;4995409;28;20763;-60
2021/03/03 02:00:50;;;;;;;2.80;2.50;;;22.20;29.40;;;;;;4995068;28;20870;-60
2021/03/03 02:03:17;;;;;;;3.23;2.67;;;22.20;29.40;;;;;;4994918;28;20458;-60
2021/03/03 02:05:43;;;;;;;3.10;2.70;;;22.10;29.40;;;;;;4994519;28;20421;-60
2021/03/03 02:08:19;;;;;;;3.05;2.75;;;22.10;29.30;;;;;;4995079;28;20494;-60
2021/03/03 02:11:01;;;;;;;3.08;2.70;;;22.10;29.30;;;;;;4994830;28;20386;-61
2021/03/03 02:13:33;;;;;;;3.45;2.95;;;22.10;29.30;;;;;;4994399;28;20419;-60
2021/03/03 02:16:01;;;;;;;3.20;2.80;;;22.10;29.30;;;;;;4994742;28;20477;-60
2021/03/03 02:18:28;;;;;;;3.15;2.83;;;22.10;29.30;;;;;;4994690;28;20751;-60
2021/03/03 02:21:04;;;;;;;3.22;2.85;;;22.10;29.20;;;;;;4994437;28;20395;-60
2021/03/03 02:23:33;;;;;;;3.25;2.88;;;22.10;29.20;;;;;;4994076;28;20953;-61
2021/03/03 02:26:00;;;;;;;3.88;3.13;;;22.10;29.30;;;;;;4994847;28;20391;-60
2021/03/03 02:28:27;;;;;;;3.40;3.00;;;22.10;29.30;;;;;;4993336;28;20897;-60
2021/03/03 02:30:52;;;;;;;3.13;2.80;;;22.10;29.30;;;;;;4994398;28;20445;-60
2021/03/03 02:33:21;;;;;;;3.50;3.20;;;22.10;29.50;;;;;;4994446;28;20395;-61
2021/03/03 02:35:48;;;;;;;3.35;2.67;;;22.00;29.20;;;;;;4993655;28;20391;-61
2021/03/03 02:38:14;;;;;;;3.80;3.10;;;22.00;29.20;;;;;;4994006;28;20474;-60
2021/03/03 02:40:42;;;;;;;3.00;2.70;;;22.00;29.20;;;;;;4994378;28;20386;-61
2021/03/03 02:43:12;;;;;;;3.58;2.50;;;22.10;29.30;;;;;;4994211;28;20461;-61
2021/03/03 02:45:39;;;;;;;3.42;3.05;;;22.00;29.20;;;;;;4993824;28;20398;-61
2021/03/03 02:48:07;;;;;;;3.57;2.90;;;22.00;29.20;;;;;;4994459;28;20502;-60
2021/03/03 02:50:33;;;;;;;2.95;2.65;;;22.00;29.20;;;;;;4994132;28;20383;-60
2021/03/03 02:52:58;;;;;;;3.30;3.00;;;22.00;29.20;;;;;;4994047;28;20433;-61
2021/03/03 02:55:26;;;;;;;3.00;2.70;;;22.00;29.20;;;;;;4992925;28;20386;-61
2021/03/03 02:57:53;;;;;;;3.05;2.75;;;22.00;29.20;;;;;;4993693;28;21413;-60
2021/03/03 03:00:21;;;;;;;3.35;3.00;;;22.00;29.10;;;;;;4993944;28;20513;-60
2021/03/03 03:02:51;;;;;;;3.30;2.90;;;22.00;29.10;;;;;;4993821;28;20418;-60
2021/03/03 03:05:18;;;;;;;2.92;2.63;;;22.00;29.10;;;;;;4993819;28;20898;-60
2021/03/03 03:07:49;;;;;;;3.30;2.58;;;22.00;29.10;;;;;;4993392;28;20430;-61
2021/03/03 03:10:17;;;;;;;3.10;2.80;;;21.90;29.10;;;;;;4993734;28;20394;-60
2021/03/03 03:12:49;;;;;;;3.20;2.90;;;21.90;29.10;;;;;;4993513;28;20415;-60
2021/03/03 03:15:17;;;;;;;3.08;2.60;;;21.90;29.10;;;;;;4993722;28;20403;-60
2021/03/03 03:24:29;;;;;;;3.10;2.80;;;21.90;29.00;;;;;;4993046;28;20401;-60
2021/03/03 03:26:57;;;;;;;3.00;2.70;;;21.90;29.00;;;;;;4992626;28;20394;-60
2021/03/03 03:29:24;;;;;;;2.88;2.58;;;21.90;29.00;;;;;;4993176;28;20887;-60
2021/03/03 03:31:50;;;;;;;2.80;2.50;;;21.90;28.90;;;;;;4992717;28;20405;-61
2021/03/03 03:34:16;;;;;;;3.20;2.50;;;21.90;28.90;;;;;;4993495;28;20425;-60
2021/03/03 03:36:43;;;;;;;2.88;2.42;;;21.90;28.90;;;;;;4993054;28;20817;-60
2021/03/03 03:39:10;;;;;;;2.85;2.55;;;21.90;28.90;;;;;;4993199;28;20398;-60
2021/03/03 03:41:37;;;;;;;3.35;2.60;;;21.90;28.80;;;;;;4992207;28;20475;-61
2021/03/03 03:44:05;;;;;;;3.08;2.60;;;21.90;28.90;;;;;;4992744;28;20418;-60
2021/03/03 03:46:32;;;;;;;2.60;2.40;;;21.90;28.90;;;;;;4993027;28;20401;-60
2021/03/03 03:48:58;;;;;;;2.63;2.33;;;21.80;28.80;;;;;;4992900;28;20406;-60
2021/03/03 03:51:24;;;;;;;2.60;2.40;;;21.80;28.80;;;;;;4992947;28;20410;-61
2021/03/03 03:53:50;;;;;;;2.63;2.42;;;21.90;28.80;;;;;;4992421;28;20395;-60
2021/03/03 03:56:16;;;;;;;2.92;2.40;;;21.80;28.80;;;;;;4992833;28;20399;-60
2021/03/03 03:58:41;;;;;;;2.78;2.35;;;21.80;28.80;;;;;;4992566;28;20492;-61
2021/03/03 04:01:07;;;;;;;3.00;2.42;;;21.80;28.80;;;;;;4992170;28;20382;-60
2021/03/03 04:03:33;;;;;;;2.60;2.30;;;21.80;28.80;;;;;;4992326;28;20418;-60
2021/03/03 04:06:03;;;;;;;2.90;2.45;;;21.80;28.80;;;;;;4992711;28;20417;-60
2021/03/03 04:08:28;;;;;;;2.58;2.10;;;21.80;28.90;;;;;;4992755;28;20387;-61
2021/03/03 04:10:54;;;;;;;2.60;2.10;;;21.70;29.10;;;;;;4992529;28;20997;-61
2021/03/03 04:13:20;;;;;;;2.90;2.20;;;21.70;29.20;;;;;;4992440;28;20418;-60
2021/03/03 04:15:46;;;;;;;2.72;2.30;;;21.70;29.20;;;;;;4991725;28;20751;-61
2021/03/03 04:18:12;;;;;;;3.10;2.40;;;21.70;29.10;;;;;;4992876;28;20406;-60
2021/03/03 04:20:41;;;;;;;3.08;2.30;;;21.70;29.40;;;;;;4992465;28;20401;-60
2021/03/03 04:23:10;;;;;;;4.30;2.17;;;21.70;29.40;;;;;;4991116;28;20422;-60
2021/03/03 04:25:36;;;;;;;3.42;2.10;;;21.70;29.70;;;;;;4992011;28;20382;-61
2021/03/03 04:28:07;;;;;;;2.95;2.03;;;21.70;29.50;;;;;;4992205;28;20456;-60
2021/03/03 04:30:33;;;;;;;2.77;2.07;;;21.80;30.30;;;;;;5006980;28;20970;-61
2021/03/03 04:32:59;;;;;;;3.22;1.98;;;21.80;30.00;;;;;;4990744;28;20894;-61
2021/03/03 04:35:25;;;;;;;4.33;1.90;;;21.80;30.10;;;;;;4991252;28;20456;-61
2021/03/03 04:37:51;;;;;;;3.93;2.17;;;21.70;30.40;;;;;;4990761;28;20445;-62
2021/03/03 04:40:17;;;;;;;4.50;1.85;;;21.80;30.70;;;;;;4992370;28;20391;-61
2021/03/03 04:42:43;;;;;;;3.43;2.03;;;21.70;30.30;;;;;;4991743;28;20571;-60
2021/03/03 04:45:10;;;;;;;4.88;1.90;;;21.80;30.60;;;;;;4992089;28;20863;-60
2021/03/03 04:47:36;;;;;;;2.95;1.90;;;21.80;30.50;;;;;;4991420;28;20386;-61
2021/03/03 04:50:04;;;;;;;4.03;1.90;;;21.90;30.70;;;;;;4991373;28;20403;-61
2021/03/03 04:52:29;;;;;;;7.63;2.10;;;21.90;30.80;;;;;;4990124;28;20391;-62
2021/03/03 04:54:55;;;;;;;7.63;2.10;;;21.90;31.20;;;;;;4992433;28;20391;-61
2021/03/03 04:57:20;;;;;;;6.30;2.10;;;21.90;30.90;;;;;;5009465;28;20410;-61
2021/03/03 04:59:46;;;;;;;3.92;2.08;;;21.90;30.80;;;;;;4992521;28;20915;-62
2021/03/03 05:02:12;;;;;;;4.60;2.30;;;21.90;29.90;;;;;;4994874;28;20887;-62
2021/03/03 05:04:37;;;;;;;3.92;1.90;;;21.80;30.20;;;;;;4994765;28;20401;-62
2021/03/03 05:07:03;;;;;;;5.40;1.93;;;21.80;29.90;;;;;;4995619;28;20409;-62
2021/03/03 05:09:29;;;;;;;2.60;1.80;;;21.80;29.70;;;;;;4995885;28;20395;-62
2021/03/03 05:11:54;;;;;;;6.68;2.10;;;21.80;29.60;;;;;;5010527;28;20391;-62
2021/03/03 05:14:20;;;;;;;7.75;2.42;;;21.80;29.70;;;;;;4995667;28;20414;-62
2021/03/03 05:16:46;;;;;;;4.65;2.28;;;21.80;30.00;;;;;;4995816;28;20401;-62
2021/03/03 05:19:11;;;;;;;9.73;2.17;;;21.70;30.10;;;;;;4995735;28;20402;-62
2021/03/03 05:21:37;;;;;;;9.05;2.90;;;21.80;30.00;;;;;;4995484;28;20696;-62
2021/03/03 05:24:04;;;;;;;8.53;3.30;;;21.80;29.80;;;;;;4995289;28;20895;-62
2021/03/03 05:26:29;;;;;;;8.20;2.97;;;21.80;29.10;;;;;;4995290;28;20387;-62
2021/03/03 05:28:55;;;;;;;7.73;2.70;;;21.80;29.10;;;;;;4995444;28;20406;-62
2021/03/03 05:31:20;;;;;;;5.57;2.20;;;21.80;28.70;;;;;;4986544;28;20460;-62
2021/03/03 05:33:46;;;;;;;6.50;2.50;;;21.80;28.70;;;;;;4991241;28;20758;-62
2021/03/03 05:36:13;;;;;;;4.78;2.50;;;21.80;28.50;;;;;;4995536;28;20393;-62
2021/03/03 05:38:40;;;;;;;5.95;2.10;;;21.80;28.60;;;;;;4995515;28;20422;-62
2021/03/03 05:41:07;;;;;;;5.20;2.20;;;21.80;28.50;;;;;;4994161;28;20429;-62
2021/03/03 05:43:34;;;;;;;4.18;2.20;;;21.70;28.40;;;;;;4995178;28;20450;-62
2021/03/03 05:46:01;;;;;;;3.53;1.90;;;21.70;28.30;;;;;;4987709;28;20854;-62
2021/03/03 05:48:37;;;;;;;5.00;2.47;;;21.70;28.30;;;;;;4982678;28;20403;-61
2021/03/03 05:51:05;;;;;;;3.40;2.10;;;21.70;28.30;;;;;;4989676;28;20449;-62
2021/03/03 05:53:32;;;;;;;4.03;2.20;;;21.70;28.30;;;;;;4985582;28;20477;-62
2021/03/03 05:56:06;;;;;;;5.35;2.45;;;21.70;28.20;;;;;;4985507;28;20396;-63
2021/03/03 05:58:33;;;;;;;7.55;2.40;;;21.60;28.50;;;;;;4977269;28;20399;-62
2021/03/03 06:01:01;;;;;;;5.35;2.60;;;21.60;28.90;;;;;;4978426;28;20396;-63
2021/03/03 06:03:28;;;;;;;7.50;2.60;;;21.50;29.10;;;;;;4994741;28;20422;-62
2021/03/03 06:05:54;;;;;;;4.80;2.38;;;21.60;29.20;;;;;;4992898;28;20473;-62
2021/03/03 06:08:22;;;;;;;5.68;2.45;;;21.60;29.20;;;;;;4993924;28;20390;-62
2021/03/03 06:10:48;;;;;;;5.05;2.40;;;21.60;29.20;;;;;;4994772;28;20413;-62
2021/03/03 06:13:15;;;;;;;4.22;2.10;;;21.60;29.10;;;;;;4994434;28;20407;-62
2021/03/03 06:15:42;;;;;;;5.07;2.10;;;21.60;29.10;;;;;;4994345;28;20418;-63
2021/03/03 06:18:09;;;;;;;4.82;2.20;;;21.60;29.00;;;;;;4994474;28;20395;-63
2021/03/03 06:20:41;;;;;;;4.40;2.28;;;21.60;29.00;;;;;;4994579;28;20402;-63
2021/03/03 06:23:14;;;;;;;4.43;2.08;;;21.60;29.10;;;;;;4994523;28;20406;-62
2021/03/03 06:25:40;;;;;;;3.72;2.13;;;21.60;29.00;;;;;;4994263;28;20395;-62
2021/03/03 06:28:06;;;;;;;4.57;2.10;;;21.60;29.10;;;;;;4994198;28;20382;-62
2021/03/03 06:30:32;;;;;;;4.50;2.00;;;21.60;29.10;;;;;;4994385;28;20395;-62
2021/03/03 06:33:02;;;;;;;3.27;1.70;;;21.60;29.00;;;;;;4994346;28;20716;-62
2021/03/03 06:35:39;;;;;;;3.80;2.30;;;21.60;29.00;;;;;;4994333;28;20398;-62
2021/03/03 06:38:07;;;;;;;2.58;1.80;;;21.50;29.10;;;;;;4993950;28;20395;-62
2021/03/03 06:40:34;;;;;;;3.00;1.92;;;21.60;29.10;;;;;;4994209;28;20399;-62
2021/03/03 06:43:18;;;;;;;3.22;1.83;;;21.50;29.10;;;;;;4994047;28;20517;-62
2021/03/03 06:45:43;;;;;;;4.63;2.35;;;21.50;29.10;;;;;;4992663;28;20468;-62
2021/03/03 06:48:09;;;;;;;4.63;2.22;;;21.50;29.10;;;;;;4994099;28;20879;-62
2021/03/03 06:50:36;;;;;;;4.97;2.78;;;21.50;29.10;;;;;;4994009;28;20394;-62
2021/03/03 06:53:02;;;;;;;4.67;2.53;;;21.50;29.20;;;;;;4993976;28;20399;-62
2021/03/03 06:55:48;;;;;;;5.18;2.47;;;21.50;29.10;;;;;;4994007;28;20797;-62
2021/03/03 06:58:28;;;;;;;4.40;2.30;;;21.40;29.80;;;;;;4992574;28;20398;-62
2021/03/03 07:00:54;;;;;;;4.68;2.42;;;21.40;29.60;;;;;;4992509;28;20414;-62
2021/03/03 07:03:35;;;;;;;3.85;2.20;;;21.40;29.50;;;;;;4993693;28;20418;-62
2021/03/03 07:06:03;;;;;;;3.57;2.30;;;21.30;29.60;;;;;;4993334;28;20541;-62
2021/03/03 07:08:29;;;;;;;4.50;2.38;;;21.40;29.60;;;;;;4993711;28;20398;-62
2021/03/03 07:10:56;;;;;;;3.67;2.30;;;21.40;29.60;;;;;;4993584;28;20418;-62
2021/03/03 07:13:40;;;;;;;4.45;2.60;;;21.40;29.40;;;;;;4993542;28;20406;-62
2021/03/03 07:16:08;;;;;;;3.83;2.35;;;21.50;29.40;;;;;;4992804;28;20399;-62
2021/03/03 07:18:37;;;;;;;3.67;2.30;;;21.50;29.40;;;;;;4993263;28;20449;-62
2021/03/03 07:21:05;;;;;;;3.90;2.30;;;21.50;29.30;;;;;;4993463;28;20409;-62
2021/03/03 07:23:48;;;;;;;3.55;2.28;;;21.60;29.30;;;;;;4993553;28;20476;-62
2021/03/03 07:26:16;;;;;;;3.30;2.20;;;21.60;29.30;;;;;;4993519;28;20390;-62
2021/03/03 07:28:42;;;;;;;4.10;2.03;;;21.60;29.20;;;;;;4993303;28;20423;-62
2021/03/03 07:31:09;;;;;;;2.92;2.10;;;21.60;29.20;;;;;;4993240;28;20402;-62
2021/03/03 07:33:35;;;;;;;2.97;2.00;;;21.60;29.20;;;;;;4993270;28;20457;-62
2021/03/03 07:36:03;;;;;;;3.53;2.20;;;21.60;29.20;;;;;;4992713;28;20817;-62
2021/03/03 07:38:34;;;;;;;3.75;2.22;;;21.70;29.10;;;;;;4993068;28;20398;-62
2021/03/03 07:41:12;;;;;;;2.93;2.00;;;21.70;29.10;;;;;;4993069;28;20401;-62
2021/03/03 07:43:39;;;;;;;2.90;2.03;;;21.70;29.00;;;;;;4993010;28;20431;-62
2021/03/03 07:46:08;;;;;;;3.30;2.22;;;21.70;28.90;;;;;;4992606;28;20394;-62
2021/03/03 07:48:40;;;;;;;3.03;2.20;;;21.80;29.00;;;;;;4992885;28;20933;-62
2021/03/03 07:51:07;;;;;;;3.80;2.40;;;21.80;29.00;;;;;;4992946;28;20497;-62
2021/03/03 07:53:42;;;;;;;3.28;2.20;;;21.80;28.90;;;;;;4992930;28;20403;-62
2021/03/03 07:56:08;;;;;;;2.88;2.10;;;21.80;28.80;;;;;;4992672;28;20560;-62
2021/03/03 07:58:38;;;;;;;3.53;2.22;;;21.80;28.80;;;;;;4992876;28;20743;-62
2021/03/03 08:01:04;;;;;;;3.10;2.20;;;21.80;28.90;;;;;;4992711;28;20379;-62
2021/03/03 08:03:49;;;;;;;3.25;2.05;;;21.80;28.90;;;;;;4992663;28;20418;-61
2021/03/03 08:06:25;;;;;;;3.40;2.40;;;21.80;28.90;;;;;;4992025;28;20414;-62
2021/03/03 08:09:06;;;;;;;3.13;2.10;;;21.90;28.90;;;;;;4992599;28;20398;-62
2021/03/03 08:11:33;;;;;;;3.25;2.25;;;21.90;28.70;;;;;;4992759;28;20397;-62
2021/03/03 08:13:59;;;;;;;3.40;2.10;;;22.00;28.70;;;;;;4991843;28;21023;-62
2021/03/03 08:16:25;;;;;;;3.00;2.40;;;22.00;28.70;;;;;;4992553;28;20405;-62
2021/03/03 08:19:00;;;;;;;2.78;2.10;;;22.10;28.60;;;;;;4992356;28;20466;-62
2021/03/03 08:21:28;;;;;;;2.40;2.00;;;22.10;28.60;;;;;;4992495;28;20486;-62
2021/03/03 08:24:00;;;;;;;2.50;1.83;;;22.10;28.50;;;;;;4991947;28;20521;-62
2021/03/03 08:26:34;;;;;;;2.55;2.00;;;22.20;28.50;;;;;;4992349;28;20391;-62
2021/03/03 08:29:14;;;;;;;3.10;2.20;;;22.20;28.50;;;;;;4992081;28;20398;-62
2021/03/03 08:31:40;;;;;;;3.10;2.25;;;22.20;28.50;;;;;;4992254;28;20409;-62
2021/03/03 08:34:09;;;;;;;3.10;1.90;;;22.30;28.50;;;;;;4991796;28;20887;-62
2021/03/03 08:36:35;;;;;;;2.75;2.10;;;22.30;28.50;;;;;;4992121;28;20803;-62
2021/03/03 08:39:01;;;;;;;2.53;1.90;;;22.20;28.40;;;;;;4992225;28;20391;-62
2021/03/03 08:41:31;;;;;;;2.65;1.92;;;22.20;28.40;;;;;;4992270;28;20763;-62
2021/03/03 08:44:12;;;;;;;3.00;2.00;;;22.20;28.40;;;;;;4991539;28;20420;-63
2021/03/03 08:46:41;;;;;;;2.40;1.90;;;22.20;28.50;;;;;;4992066;28;20387;-63
2021/03/03 08:49:06;;;;;;;2.80;1.80;;;22.20;28.40;;;;;;4992403;28;20391;-62
2021/03/03 08:51:42;;;;;;;2.73;1.80;;;22.30;28.50;;;;;;4992070;28;20382;-62
2021/03/03 08:54:09;;;;;;;2.10;1.67;;;22.40;28.50;;;;;;4991594;28;20402;-62
2021/03/03 08:56:38;;;;;;;2.20;1.90;;;22.40;28.40;;;;;;4991993;28;20874;-62
2021/03/03 08:59:25;;;;;;;2.15;1.70;;;22.40;28.30;;;;;;4991939;28;20399;-62
2021/03/03 09:02:15;;;;;;;2.47;1.67;;;22.40;28.30;;;;;;4991711;28;20477;-62
2021/03/03 09:04:42;;;;;;;3.55;1.77;;;22.50;28.30;;;;;;4990768;28;20406;-62
2021/03/03 09:07:11;;;;;;;2.60;1.80;;;22.50;28.30;;;;;;4991980;28;20444;-62
2021/03/03 09:09:46;;;;;;;2.53;1.70;;;22.50;28.30;;;;;;4991930;28;20398;-62
2021/03/03 09:12:14;;;;;;;2.40;1.70;;;22.50;28.20;;;;;;4990183;28;20485;-62
2021/03/03 09:14:42;;;;;;;2.38;1.83;;;22.50;28.30;;;;;;4990599;28;20418;-62
2021/03/03 09:17:13;;;;;;;2.63;1.67;;;22.50;28.20;;;;;;4991933;28;20902;-62
2021/03/03 09:19:39;;;;;;;2.53;1.70;;;22.50;28.20;;;;;;4991906;28;20883;-62
2021/03/03 09:22:28;;;;;;;2.40;1.50;;;22.50;28.20;;;;;;4991435;28;20386;-62
2021/03/03 09:24:56;;;;;;;2.25;1.55;;;22.50;28.30;;;;;;4991858;28;20960;-62
2021/03/03 09:27:23;;;;;;;2.03;1.50;;;22.50;28.30;;;;;;4991788;28;20398;-62
2021/03/03 09:29:49;;;;;;;2.08;1.38;;;22.50;28.30;;;;;;4991446;28;20395;-62
2021/03/03 09:32:23;;;;;;;2.45;1.58;;;22.50;28.30;;;;;;4991504;28;20871;-62
2021/03/03 09:34:52;;;;;;;1.80;1.35;;;22.50;28.30;;;;;;4991916;28;20399;-62
2021/03/03 09:37:19;;;;;;;1.80;1.30;;;22.40;28.80;;;;;;4991669;28;20387;-62
2021/03/03 09:39:59;;;;;;;1.88;1.42;;;22.40;28.30;;;;;;4992315;28;20465;-62
2021/03/03 09:42:26;;;;;;;1.88;1.40;;;22.40;28.30;;;;;;4995492;28;20394;-62
2021/03/03 09:44:58;;;;;;;2.00;1.33;;;22.40;28.40;;;;;;4995261;28;20395;-62
2021/03/03 09:47:40;;;;;;;1.80;1.30;;;22.40;28.40;;;;;;4995240;28;20382;-62
2021/03/03 09:50:18;;;;;;;1.40;1.10;;;22.40;28.40;;;;;;4994730;28;20394;-62
2021/03/03 09:52:50;;;;;;;2.30;1.27;;;22.40;28.40;;;;;;4993972;28;20506;-62
2021/03/03 09:55:17;;;;;;;1.87;1.27;;;22.40;28.40;;;;;;4995304;28;20394;-62
2021/03/03 09:57:48;;;;;;;1.83;1.23;;;22.40;28.40;;;;;;4995050;28;20404;-62
2021/03/03 10:00:16;;;;;;;2.15;1.25;;;22.30;28.50;;;;;;4994990;28;20825;-62
2021/03/03 10:02:57;;;;;;;1.77;1.25;;;22.30;29.00;;;;;;4994951;28;20802;-62
2021/03/03 10:05:26;;;;;;;2.05;1.30;;;22.30;28.40;;;;;;4994924;28;20875;-62
2021/03/03 10:08:03;;;;;;;2.08;1.20;;;22.30;28.40;;;;;;4994678;28;20952;-62
2021/03/03 10:10:38;;;;;;;2.30;1.23;;;22.40;28.40;;;;;;4994927;28;20838;-62
2021/03/03 10:13:04;;;;;;;3.08;1.30;;;22.40;28.40;;;;;;4994602;28;20461;-62
2021/03/03 10:15:32;;;;;;;2.95;1.20;;;22.40;28.50;;;;;;4994828;28;20398;-62
2021/03/03 10:17:58;;;;;;;2.40;1.40;;;22.50;28.40;;;;;;4994147;28;20386;-62
2021/03/03 10:20:51;;;;;;;3.15;1.30;;;22.40;28.40;;;;;;4994682;28;20395;-62
2021/03/03 10:23:19;;;;;;;2.40;1.40;;;22.50;28.40;;;;;;4991521;28;20422;-62
2021/03/03 10:25:50;;;;;;;3.37;1.37;;;22.40;28.40;;;;;;4994515;28;20980;-62
2021/03/03 10:28:24;;;;;;;2.30;1.27;;;22.40;28.50;;;;;;4994312;28;20413;-62
2021/03/03 10:30:52;;;;;;;1.80;1.33;;;22.40;28.50;;;;;;4994416;28;20399;-62
2021/03/03 10:33:44;;;;;;;2.13;1.47;;;22.50;28.50;;;;;;4994372;28;20398;-62
2021/03/03 10:36:22;;;;;;;1.90;1.40;;;22.50;28.50;;;;;;4988165;28;20732;-62
2021/03/03 10:38:54;;;;;;;2.03;1.30;;;22.40;28.40;;;;;;4994297;28;20777;-62
2021/03/03 10:41:24;;;;;;;4.07;1.30;;;22.50;29.00;;;;;;4992979;28;20403;-62
2021/03/03 10:43:50;;;;;;;2.85;1.20;;;22.50;28.50;;;;;;4994208;28;20489;-62
2021/03/03 10:46:19;;;;;;;1.83;1.20;;;22.50;28.50;;;;;;4993994;28;21328;-62
2021/03/03 10:48:46;;;;;;;2.10;1.30;;;22.50;28.50;;;;;;4994166;28;20390;-62
2021/03/03 10:51:14;;;;;;;1.60;1.10;;;22.40;28.50;;;;;;4993211;28;20398;-62
2021/03/03 10:53:59;;;;;;;2.15;1.25;;;22.40;28.40;;;;;;4993737;28;20486;-62
2021/03/03 10:56:33;;;;;;;2.63;1.00;;;22.40;28.50;;;;;;4994039;28;20385;-62
2021/03/03 10:59:09;;;;;;;1.50;1.05;;;22.40;28.50;;;;;;4993871;28;20454;-62
2021/03/03 11:01:49;;;;;;;1.77;1.05;;;22.50;28.50;;;;;;4993853;28;20909;-62
2021/03/03 11:04:14;;;;;;;2.00;1.10;;;22.50;28.50;;;;;;4993327;28;20977;-62
2021/03/03 11:06:41;;;;;;;1.95;1.08;;;22.50;28.50;;;;;;4993773;28;20473;-62
2021/03/03 11:09:11;;;;;;;1.80;1.08;;;22.50;28.50;;;;;;4993852;28;20399;-62
2021/03/03 11:11:47;;;;;;;1.90;1.20;;;22.40;28.60;;;;;;4993716;28;20395;-62
2021/03/03 11:14:12;;;;;;;2.33;1.10;;;22.50;28.60;;;;;;4992886;28;20810;-62
2021/03/03 11:16:38;;;;;;;2.00;1.17;;;22.50;28.70;;;;;;4993654;28;20434;-63
2021/03/03 11:19:03;;;;;;;1.80;1.20;;;22.50;28.60;;;;;;4993621;28;20395;-62
2021/03/03 11:21:29;;;;;;;2.10;1.10;;;22.50;28.60;;;;;;4993570;28;20386;-62
2021/03/03 11:23:55;;;;;;;2.03;1.30;;;22.50;28.60;;;;;;4993209;28;20956;-62
2021/03/03 11:26:20;;;;;;;1.93;1.20;;;22.50;28.50;;;;;;4993199;28;20398;-63
2021/03/03 11:28:46;;;;;;;1.20;0.98;;;22.50;28.50;;;;;;4993407;28;20426;-62
2021/03/03 11:31:11;;;;;;;2.33;1.10;;;22.60;28.50;;;;;;4993356;28;20436;-62
2021/03/03 11:33:37;;;;;;;1.77;1.00;;;22.60;28.60;;;;;;4993287;28;20497;-62
2021/03/03 11:36:03;;;;;;;1.40;0.90;;;22.60;28.60;;;;;;4992780;28;20434;-62
2021/03/03 11:38:29;;;;;;;2.00;1.20;;;22.60;28.60;;;;;;4993242;28;20495;-62
2021/03/03 11:40:55;;;;;;;1.30;0.90;;;22.50;28.50;;;;;;4993209;28;20386;-62
2021/03/03 11:43:21;;;;;;;1.35;1.00;;;22.60;28.50;;;;;;4993180;28;20410;-62
2021/03/03 11:45:46;;;;;;;1.80;1.10;;;22.60;28.60;;;;;;4975602;28;20421;-62
2021/03/03 11:48:12;;;;;;;1.70;1.20;;;22.60;28.50;;;;;;4993003;28;20755;-63
2021/03/03 11:50:37;;;;;;;1.80;1.10;;;22.60;28.60;;;;;;4992879;28;20471;-62
2021/03/03 11:53:03;;;;;;;1.23;0.80;;;22.50;28.60;;;;;;4993001;28;20399;-62
2021/03/03 11:55:29;;;;;;;2.03;1.10;;;22.50;28.60;;;;;;4992891;28;20453;-62
2021/03/03 11:57:54;;;;;;;1.67;0.98;;;22.50;28.60;;;;;;4992845;28;20445;-63
2021/03/03 12:00:20;;;;;;;1.80;1.10;;;22.50;28.60;;;;;;4992854;28;20394;-62
2021/03/03 12:02:46;;;;;;;1.60;0.95;;;22.50;28.60;;;;;;4992218;28;20418;-63
2021/03/03 12:05:12;;;;;;;2.00;1.00;;;22.50;28.60;;;;;;4992811;28;20887;-62
2021/03/03 12:07:38;;;;;;;1.77;1.10;;;22.60;28.60;;;;;;4992672;28;20477;-62
2021/03/03 12:10:05;;;;;;;1.73;0.90;;;22.60;28.60;;;;;;4992308;28;20477;-62
2021/03/03 12:12:30;;;;;;;1.30;0.90;;;22.60;28.60;;;;;;4992490;28;20387;-62
2021/03/03 12:14:56;;;;;;;1.60;0.90;;;22.60;28.60;;;;;;4992654;28;20780;-63
2021/03/03 12:17:22;;;;;;;1.77;1.10;;;22.60;28.60;;;;;;4992557;28;20896;-62
2021/03/03 12:19:48;;;;;;;1.85;0.90;;;22.70;28.60;;;;;;4992483;28;20391;-62
2021/03/03 12:22:13;;;;;;;1.70;0.90;;;22.70;28.60;;;;;;4991998;28;20883;-62
2021/03/03 12:24:39;;;;;;;1.70;0.90;;;22.70;28.60;;;;;;4992344;28;20426;-62
2021/03/03 12:27:05;;;;;;;1.80;0.90;;;22.70;28.60;;;;;;4992369;28;20398;-62
2021/03/03 12:29:30;;;;;;;1.50;1.00;;;22.70;28.60;;;;;;4992448;28;20390;-62
2021/03/03 12:31:56;;;;;;;1.70;0.80;;;22.70;28.60;;;;;;4992276;28;20763;-62
2021/03/03 12:34:24;;;;;;;1.70;0.97;;;22.70;28.60;;;;;;4992152;28;20406;-62
2021/03/03 12:36:49;;;;;;;1.45;0.88;;;22.70;28.70;;;;;;4990961;28;20398;-62
2021/03/03 12:39:15;;;;;;;1.63;0.90;;;22.70;28.70;;;;;;4992359;28;20497;-62
2021/03/03 12:41:41;;;;;;;1.42;0.98;;;22.70;28.70;;;;;;4992171;28;20760;-62
2021/03/03 12:44:07;;;;;;;1.50;1.00;;;22.70;28.60;;;;;;4991635;28;20454;-62
2021/03/03 12:46:32;;;;;;;1.90;1.10;;;22.70;28.60;;;;;;4992096;28;20842;-62
2021/03/03 12:48:58;;;;;;;1.50;0.80;;;22.70;28.70;;;;;;4992089;28;20394;-62
2021/03/03 12:51:24;;;;;;;1.47;1.03;;;22.70;28.60;;;;;;4992125;28;20441;-61
2021/03/03 12:53:50;;;;;;;1.40;0.90;;;22.70;28.70;;;;;;4990872;28;20403;-60
2021/03/03 12:56:15;;;;;;;1.52;1.02;;;22.70;28.70;;;;;;4991583;28;20473;-60
2021/03/03 12:58:41;;;;;;;1.53;1.00;;;22.70;28.70;;;;;;4992085;28;20403;-60
2021/03/03 13:01:06;;;;;;;1.60;0.90;;;22.70;28.70;;;;;;4992045;28;20426;-60